createdAt,value
2019-03-15T00:00:19.857Z,2.47
2019-03-15T00:02:46.656Z,3.13
2019-03-15T00:05:13.512Z,2.67
2019-03-15T00:07:41.282Z,3.93
2019-03-15T00:10:08.308Z,3.27
2019-03-15T00:12:35.257Z,2.27
2019-03-15T00:15:02.788Z,2.30
2019-03-15T00:17:29.662Z,2.53
2019-03-15T00:19:56.682Z,4.10
2019-03-15T00:22:23.676Z,3.47
2019-03-15T00:24:50.420Z,2.87
2019-03-15T00:27:17.348Z,3.60
2019-03-15T00:29:44.181Z,3.27
2019-03-15T00:32:13.497Z,4.30
2019-03-15T00:34:40.368Z,3.80
2019-03-15T00:37:07.118Z,3.63
2019-03-15T00:39:33.853Z,2.53
2019-03-15T00:42:00.618Z,5.50
2019-03-15T00:44:27.477Z,2.80
2019-03-15T00:46:54.233Z,3.50
2019-03-15T00:49:21.613Z,3.27
2019-03-15T00:51:48.838Z,2.93
2019-03-15T00:54:15.644Z,5.20
2019-03-15T00:56:42.410Z,2.80
2019-03-15T00:59:09.193Z,2.77
2019-03-15T01:01:35.945Z,4.37
2019-03-15T01:04:02.717Z,4.53
2019-03-15T01:06:29.776Z,2.90
2019-03-15T01:08:56.608Z,4.37
2019-03-15T01:11:23.393Z,3.17
2019-03-15T01:13:50.132Z,2.47
2019-03-15T01:16:16.869Z,3.50
2019-03-15T01:18:44.642Z,3.40
2019-03-15T01:21:11.766Z,3.27
2019-03-15T01:23:39.001Z,3.67
2019-03-15T01:26:05.773Z,3.17
2019-03-15T01:28:32.616Z,4.73
2019-03-15T01:30:59.353Z,4.50
2019-03-15T01:33:26.405Z,3.57
2019-03-15T01:35:53.248Z,5.00
2019-03-15T01:38:19.985Z,4.00
2019-03-15T01:40:48.832Z,4.27
2019-03-15T01:43:15.402Z,4.97
2019-03-15T01:45:42.157Z,6.00
2019-03-15T01:48:08.934Z,4.50
2019-03-15T01:50:35.882Z,4.50
2019-03-15T01:53:02.718Z,7.63
2019-03-15T01:55:29.578Z,5.77
2019-03-15T01:57:56.582Z,5.87
2019-03-15T02:00:23.328Z,4.93
2019-03-15T02:02:50.318Z,5.90
2019-03-15T02:05:17.162Z,3.53
2019-03-15T02:07:44.072Z,6.70
2019-03-15T02:10:11.088Z,5.37
2019-03-15T02:12:38.108Z,4.17
2019-03-15T02:15:05.793Z,4.13
2019-03-15T02:17:32.805Z,3.13
2019-03-15T02:19:59.564Z,4.47
2019-03-15T02:22:26.336Z,4.27
2019-03-15T02:24:53.341Z,3.67
2019-03-15T02:27:20.080Z,3.33
2019-03-15T02:29:46.853Z,3.27
2019-03-15T02:32:13.608Z,4.50
2019-03-15T02:34:40.352Z,4.63
2019-03-15T02:37:07.267Z,6.00
2019-03-15T02:39:34.058Z,4.37
2019-03-15T02:42:01.204Z,3.73
2019-03-15T02:44:27.946Z,6.47
2019-03-15T02:46:55.278Z,6.83
2019-03-15T02:49:22.186Z,6.07
2019-03-15T02:51:49.948Z,6.23
2019-03-15T02:54:16.987Z,4.77
2019-03-15T02:56:43.741Z,6.33
2019-03-15T02:59:10.728Z,9.83
2019-03-15T03:01:37.480Z,10.33
2019-03-15T03:04:04.322Z,3.53
2019-03-15T03:06:31.079Z,7.50
2019-03-15T03:08:57.828Z,6.10
2019-03-15T03:11:24.922Z,6.37
2019-03-15T03:13:51.779Z,5.80
2019-03-15T03:16:19.323Z,7.70
2019-03-15T03:18:46.370Z,9.07
2019-03-15T03:21:13.269Z,8.30
2019-03-15T03:23:40.449Z,5.43
2019-03-15T03:26:07.431Z,8.23
2019-03-15T03:28:34.446Z,7.23
2019-03-15T03:31:01.431Z,7.30
2019-03-15T03:33:28.417Z,5.83
2019-03-15T03:35:55.318Z,8.47
2019-03-15T03:38:22.171Z,8.73
2019-03-15T03:40:48.998Z,8.10
2019-03-15T03:43:15.744Z,7.17
2019-03-15T03:45:42.575Z,7.53
2019-03-15T03:48:09.685Z,6.90
2019-03-15T03:50:36.522Z,7.67
2019-03-15T03:53:03.378Z,7.13
2019-03-15T03:55:30.122Z,6.97
2019-03-15T03:57:56.991Z,9.47
2019-03-15T04:00:24.232Z,7.03
2019-03-15T04:02:53.212Z,7.53
2019-03-15T04:05:20.646Z,9.13
2019-03-15T04:07:47.760Z,6.23
2019-03-15T04:10:14.840Z,8.00
2019-03-15T04:12:42.764Z,8.67
2019-03-15T04:15:10.109Z,8.37
2019-03-15T04:17:37.122Z,6.50
2019-03-15T04:20:04.342Z,8.73
2019-03-15T04:22:31.403Z,4.87
2019-03-15T04:24:58.152Z,6.47
2019-03-15T04:27:25.041Z,6.27
2019-03-15T04:29:51.801Z,8.83
2019-03-15T04:32:18.579Z,7.07
2019-03-15T04:34:45.321Z,7.03
2019-03-15T04:37:12.321Z,9.20
2019-03-15T04:39:39.069Z,6.33
2019-03-15T04:42:05.810Z,6.83
2019-03-15T04:44:32.569Z,8.07
2019-03-15T04:46:59.322Z,5.13
2019-03-15T04:49:26.093Z,8.57
2019-03-15T04:51:52.931Z,6.07
2019-03-15T04:54:20.025Z,8.33
2019-03-15T04:56:48.161Z,8.03
2019-03-15T04:59:15.771Z,6.13
2019-03-15T05:01:42.628Z,8.93
2019-03-15T05:04:09.724Z,8.30
2019-03-15T05:06:36.494Z,8.53
2019-03-15T05:09:05.304Z,6.77
2019-03-15T05:11:32.122Z,6.50
2019-03-15T05:13:59.305Z,6.53
2019-03-15T05:16:26.077Z,8.00
2019-03-15T05:18:53.408Z,7.50
2019-03-15T05:21:20.451Z,7.10
2019-03-15T05:23:47.192Z,9.00
2019-03-15T05:26:13.931Z,6.23
2019-03-15T05:28:40.998Z,6.40
2019-03-15T05:31:07.749Z,8.50
2019-03-15T05:33:34.910Z,8.17
2019-03-15T05:36:01.787Z,8.37
2019-03-15T05:38:28.849Z,8.50
2019-03-15T05:40:55.885Z,10.90
2019-03-15T05:43:22.634Z,9.17
2019-03-15T05:45:49.388Z,8.83
2019-03-15T05:48:16.483Z,8.43
2019-03-15T05:50:43.485Z,7.77
2019-03-15T05:53:10.601Z,9.63
2019-03-15T05:55:37.349Z,11.23
2019-03-15T05:58:04.546Z,11.93
2019-03-15T06:00:31.552Z,9.83
2019-03-15T06:02:58.338Z,9.07
2019-03-15T06:05:25.485Z,11.63
2019-03-15T06:07:52.325Z,8.80
2019-03-15T06:10:19.090Z,8.80
2019-03-15T06:12:46.101Z,8.20
2019-03-15T06:15:13.321Z,9.63
2019-03-15T06:17:40.326Z,12.70
2019-03-15T06:20:07.654Z,8.57
2019-03-15T06:22:34.524Z,8.53
2019-03-15T06:25:01.631Z,7.47
2019-03-15T06:27:31.069Z,8.97
2019-03-15T06:29:57.268Z,6.53
2019-03-15T06:32:24.288Z,9.43
2019-03-15T06:34:51.161Z,6.13
2019-03-15T06:37:18.149Z,8.70
2019-03-15T06:39:44.900Z,9.97
2019-03-15T06:42:11.674Z,5.40
2019-03-15T06:44:38.440Z,10.33
2019-03-15T06:47:05.434Z,8.47
2019-03-15T06:49:32.196Z,12.37
2019-03-15T06:51:58.949Z,7.93
2019-03-15T06:54:26.130Z,7.87
2019-03-15T06:56:53.134Z,7.67
2019-03-15T06:59:20.581Z,10.20
2019-03-15T07:01:47.393Z,8.43
2019-03-15T07:04:14.137Z,7.47
2019-03-15T07:06:41.158Z,8.77
2019-03-15T07:09:08.070Z,8.70
2019-03-15T07:11:34.829Z,8.10
2019-03-15T07:14:01.565Z,6.40
2019-03-15T07:16:28.389Z,10.17
2019-03-15T07:18:55.497Z,8.53
2019-03-15T07:21:22.851Z,9.40
2019-03-15T07:23:49.937Z,10.70
2019-03-15T07:26:16.717Z,8.80
2019-03-15T07:28:43.501Z,7.77
2019-03-15T07:31:10.254Z,10.77
2019-03-15T07:33:37.190Z,10.37
2019-03-15T07:36:04.046Z,11.57
2019-03-15T07:38:31.053Z,11.63
2019-03-15T07:40:57.837Z,8.47
2019-03-15T07:43:24.572Z,12.00
2019-03-15T07:45:51.355Z,10.03
2019-03-15T07:48:22.850Z,7.37
2019-03-15T07:50:49.782Z,13.20
2019-03-15T07:53:17.068Z,13.63
2019-03-15T07:55:43.825Z,8.70
2019-03-15T07:58:10.825Z,7.30
2019-03-15T08:00:37.665Z,7.13
2019-03-15T08:03:04.544Z,6.50
2019-03-15T08:05:31.413Z,11.07
2019-03-15T08:07:58.154Z,10.70
2019-03-15T08:10:25.192Z,9.83
2019-03-15T08:12:51.933Z,8.10
2019-03-15T08:15:18.925Z,8.30
2019-03-15T08:17:45.772Z,8.77
2019-03-15T08:20:12.814Z,9.63
2019-03-15T08:22:39.606Z,8.70
2019-03-15T08:25:07.430Z,10.33
2019-03-15T08:27:34.182Z,8.33
2019-03-15T08:30:00.949Z,8.30
2019-03-15T08:32:27.689Z,11.07
2019-03-15T08:34:54.432Z,7.00
2019-03-15T08:37:21.430Z,6.83
2019-03-15T08:39:48.169Z,7.63
2019-03-15T08:42:14.980Z,7.63
2019-03-15T08:44:41.797Z,7.60
2019-03-15T08:47:08.589Z,6.83
2019-03-15T08:49:35.321Z,8.30
2019-03-15T08:52:04.130Z,6.93
2019-03-15T08:54:31.346Z,5.80
2019-03-15T08:56:58.093Z,8.33
2019-03-15T08:59:25.179Z,5.60
2019-03-15T09:01:52.447Z,6.37
2019-03-15T09:04:21.621Z,8.40
2019-03-15T09:06:48.189Z,4.90
2019-03-15T09:09:14.946Z,5.70
2019-03-15T09:11:41.692Z,3.93
2019-03-15T09:14:08.463Z,5.73
2019-03-15T09:16:35.350Z,5.30
2019-03-15T09:19:02.187Z,3.60
2019-03-15T09:21:29.134Z,4.23
2019-03-15T09:23:56.121Z,6.17
2019-03-15T09:26:22.887Z,7.13
2019-03-15T09:28:49.869Z,7.03
2019-03-15T09:31:16.637Z,4.50
2019-03-15T09:33:43.474Z,6.83
2019-03-15T09:36:10.224Z,5.50
2019-03-15T09:38:37.480Z,5.03
2019-03-15T09:41:04.329Z,4.83
2019-03-15T09:43:31.305Z,3.00
2019-03-15T09:45:58.045Z,2.83
2019-03-15T09:48:24.856Z,2.20
2019-03-15T09:50:51.978Z,1.77
2019-03-15T09:53:18.845Z,2.77
2019-03-15T09:55:45.590Z,1.27
2019-03-15T09:58:12.454Z,1.33
2019-03-15T10:00:39.448Z,1.23
2019-03-15T10:03:06.181Z,2.10
2019-03-15T10:05:32.938Z,4.07
2019-03-15T10:07:59.689Z,1.83
2019-03-15T10:10:26.464Z,2.00
2019-03-15T10:13:04.949Z,0.73
2019-03-15T10:15:21.947Z,1.97
2019-03-15T10:17:48.808Z,2.27
2019-03-15T10:20:15.747Z,1.63
2019-03-15T10:22:42.613Z,1.20
2019-03-15T10:25:09.722Z,1.00
2019-03-15T10:27:36.745Z,1.63
2019-03-15T10:30:04.246Z,1.40
2019-03-15T10:32:30.993Z,1.07
2019-03-15T10:34:57.745Z,1.67
2019-03-15T10:37:24.486Z,1.50
2019-03-15T10:39:51.220Z,1.93
2019-03-15T10:42:18.198Z,1.00
2019-03-15T10:44:44.934Z,1.73
2019-03-15T10:47:11.685Z,1.33
2019-03-15T10:49:38.437Z,1.20
2019-03-15T10:52:05.233Z,1.20
2019-03-15T10:54:32.041Z,1.07
2019-03-15T10:56:58.987Z,2.20
2019-03-15T10:59:25.741Z,0.90
2019-03-15T11:01:52.504Z,1.60
2019-03-15T11:04:19.328Z,1.90
2019-03-15T11:06:46.225Z,1.00
2019-03-15T11:09:13.239Z,2.27
2019-03-15T11:11:39.985Z,1.10
2019-03-15T11:14:06.997Z,1.77
2019-03-15T11:16:34.044Z,2.00
2019-03-15T11:19:00.797Z,1.47
2019-03-15T11:21:27.553Z,1.30
2019-03-15T11:23:54.325Z,1.47
2019-03-15T11:26:21.076Z,1.80
2019-03-15T11:28:47.889Z,2.77
2019-03-15T11:31:14.703Z,1.23
2019-03-15T11:33:41.462Z,2.10
2019-03-15T11:36:08.203Z,1.13
2019-03-15T11:38:34.974Z,1.03
2019-03-15T11:41:01.713Z,1.93
2019-03-15T11:43:28.569Z,1.00
2019-03-15T11:45:55.326Z,2.03
2019-03-15T11:48:22.144Z,1.83
2019-03-15T11:50:48.979Z,1.63
2019-03-15T11:53:18.805Z,1.20
2019-03-15T11:55:44.983Z,1.30
2019-03-15T11:58:11.752Z,2.10
2019-03-15T12:00:38.598Z,1.60
2019-03-15T12:03:05.349Z,1.53
2019-03-15T12:05:32.190Z,1.30
2019-03-15T12:07:58.983Z,2.47
2019-03-15T12:10:25.849Z,2.23
2019-03-15T12:12:52.868Z,2.47
2019-03-15T12:15:19.727Z,2.80
2019-03-15T12:17:46.662Z,1.50
2019-03-15T12:20:13.617Z,1.60
2019-03-15T12:22:40.497Z,1.70
2019-03-15T12:25:07.487Z,1.50
2019-03-15T12:27:34.590Z,3.53
2019-03-15T12:30:01.579Z,1.70
2019-03-15T12:32:28.378Z,2.63
2019-03-15T12:34:55.394Z,3.23
2019-03-15T12:37:22.632Z,1.40
2019-03-15T12:39:49.408Z,1.90
2019-03-15T12:42:16.453Z,2.60
2019-03-15T12:44:43.220Z,1.37
2019-03-15T12:47:10.069Z,1.87
2019-03-15T12:49:37.013Z,2.17
2019-03-15T12:52:03.990Z,1.47
2019-03-15T12:54:30.989Z,1.80
2019-03-15T12:56:58.294Z,1.70
2019-03-15T12:59:25.072Z,1.35
2019-03-15T13:01:51.874Z,2.50
2019-03-15T13:04:18.990Z,1.77
2019-03-15T13:06:45.969Z,2.67
2019-03-15T13:09:12.717Z,1.43
2019-03-15T13:11:39.608Z,2.97
2019-03-15T13:14:06.607Z,6.65
2019-03-15T13:16:33.352Z,4.12
2019-03-15T13:19:00.181Z,11.57
2019-03-15T13:21:26.933Z,2.07
2019-03-15T13:23:53.696Z,2.63
2019-03-15T13:26:20.777Z,2.12
2019-03-15T13:28:47.534Z,1.60
2019-03-15T13:31:14.533Z,1.20
2019-03-15T13:33:41.281Z,1.27
2019-03-15T13:36:08.267Z,1.30
2019-03-15T13:38:35.026Z,4.20
2019-03-15T13:41:01.797Z,0.68
2019-03-15T13:43:28.796Z,1.20
2019-03-15T13:45:55.581Z,2.98
2019-03-15T13:48:22.321Z,1.30
2019-03-15T13:50:49.098Z,0.60
2019-03-15T13:53:15.869Z,1.05
2019-03-15T13:55:42.613Z,0.80
2019-03-15T13:58:09.353Z,0.80
2019-03-15T14:00:36.402Z,0.60
2019-03-15T14:03:03.236Z,0.70
2019-03-15T14:05:29.984Z,0.88
2019-03-15T14:07:56.821Z,0.70
2019-03-15T14:10:23.675Z,0.55
2019-03-15T14:12:50.467Z,0.72
2019-03-15T14:15:17.451Z,1.30
2019-03-15T14:17:44.277Z,1.90
2019-03-15T14:20:11.272Z,1.50
2019-03-15T14:22:38.006Z,0.80
2019-03-15T14:25:05.518Z,1.10
2019-03-15T14:27:37.457Z,0.77
2019-03-15T14:30:00.986Z,0.80
2019-03-15T14:32:27.977Z,2.58
2019-03-15T14:34:54.729Z,0.50
2019-03-15T14:37:21.578Z,3.77
2019-03-15T14:39:48.645Z,2.85
2019-03-15T14:42:15.516Z,0.98
2019-03-15T14:44:42.551Z,0.98
2019-03-15T14:47:09.430Z,3.20
2019-03-15T14:49:38.205Z,0.80
2019-03-15T14:52:04.944Z,0.60
2019-03-15T14:54:31.941Z,0.95
2019-03-15T14:56:59.201Z,1.92
2019-03-15T14:59:25.974Z,1.30
2019-03-15T15:01:52.955Z,0.85
2019-03-15T15:04:19.813Z,0.57
2019-03-15T15:06:46.569Z,0.70
2019-03-15T15:09:13.341Z,0.72
2019-03-15T15:11:40.092Z,0.70
2019-03-15T15:14:06.838Z,1.07
2019-03-15T15:16:33.841Z,0.98
2019-03-15T15:19:00.623Z,0.70
2019-03-15T15:21:27.497Z,6.00
2019-03-15T15:23:54.262Z,0.82
2019-03-15T15:26:21.111Z,3.35
2019-03-15T15:28:48.111Z,1.10
2019-03-15T15:31:15.239Z,1.20
2019-03-15T15:33:41.980Z,1.20
2019-03-15T15:36:08.829Z,1.30
2019-03-15T15:38:35.588Z,0.75
2019-03-15T15:41:02.536Z,1.10
2019-03-15T15:43:29.401Z,1.20
2019-03-15T15:45:56.153Z,0.98
2019-03-15T15:48:22.946Z,1.50
2019-03-15T15:50:49.993Z,1.87
2019-03-15T15:53:16.813Z,1.42
2019-03-15T15:55:44.086Z,0.75
2019-03-15T15:58:17.822Z,1.20
2019-03-15T16:00:40.306Z,2.00
2019-03-15T16:03:07.201Z,0.80
2019-03-15T16:05:33.964Z,1.30
2019-03-15T16:08:02.905Z,1.10
2019-03-15T16:10:29.661Z,1.20
2019-03-15T16:12:56.654Z,1.45
2019-03-15T16:15:23.765Z,1.00
2019-03-15T16:17:50.521Z,1.12
2019-03-15T16:20:17.385Z,1.12
2019-03-15T16:22:44.299Z,1.00
2019-03-15T16:25:11.487Z,1.30
2019-03-15T16:27:38.341Z,1.47
2019-03-15T16:30:06.740Z,1.15
2019-03-15T16:32:33.480Z,1.65
2019-03-15T16:35:00.666Z,1.27
2019-03-15T16:37:27.450Z,1.20
2019-03-15T16:39:56.480Z,1.35
2019-03-15T16:42:22.849Z,1.50
2019-03-15T16:44:50.366Z,1.47
2019-03-15T16:47:17.105Z,1.93
2019-03-15T16:49:44.092Z,1.10
2019-03-15T16:52:10.857Z,1.12
2019-03-15T16:54:37.602Z,1.70
2019-03-15T16:57:04.678Z,1.25
2019-03-15T16:59:31.412Z,1.25
2019-03-15T17:01:58.211Z,1.10
2019-03-15T17:04:25.032Z,1.02
2019-03-15T17:06:52.080Z,0.75
2019-03-15T17:09:19.230Z,0.50
2019-03-15T17:11:46.008Z,0.97
2019-03-15T17:14:25.036Z,0.60
2019-03-15T17:16:41.393Z,0.80
2019-03-15T17:19:08.132Z,1.10
2019-03-15T17:21:35.038Z,1.15
2019-03-15T17:24:01.777Z,1.00
2019-03-15T17:26:28.533Z,0.78
2019-03-15T17:28:58.855Z,0.85
2019-03-15T17:31:23.913Z,1.12
2019-03-15T17:33:50.645Z,0.57
2019-03-15T17:36:17.417Z,1.80
2019-03-15T17:38:44.289Z,0.60
2019-03-15T17:41:11.280Z,0.70
2019-03-15T17:43:38.029Z,7.60
2019-03-15T17:46:04.900Z,0.60
2019-03-15T17:48:31.732Z,0.80
2019-03-15T17:50:58.917Z,0.68
2019-03-15T17:53:26.030Z,0.60
2019-03-15T17:55:54.629Z,1.42
2019-03-15T17:58:21.577Z,0.70
2019-03-15T18:00:48.747Z,2.50
2019-03-15T18:03:21.221Z,0.68
2019-03-15T18:05:44.706Z,0.78
2019-03-15T18:08:11.554Z,0.42
2019-03-15T18:10:38.430Z,0.85
2019-03-15T18:13:05.400Z,0.80
2019-03-15T18:15:32.276Z,1.90
2019-03-15T18:18:00.198Z,0.60
2019-03-15T18:20:27.434Z,1.00
2019-03-15T18:22:56.490Z,0.88
2019-03-15T18:25:23.555Z,1.90
2019-03-15T18:27:50.906Z,2.40
2019-03-15T18:30:17.785Z,3.58
2019-03-15T18:32:44.733Z,7.28
2019-03-15T18:35:11.969Z,1.95
2019-03-15T18:37:39.086Z,3.62
2019-03-15T18:40:07.609Z,3.50
2019-03-15T18:42:34.430Z,4.90
2019-03-15T18:45:01.440Z,7.08
2019-03-15T18:47:28.292Z,1.70
2019-03-15T18:49:55.273Z,3.43
2019-03-15T18:52:22.021Z,4.35
2019-03-15T18:54:48.766Z,4.83
2019-03-15T18:57:15.521Z,4.10
2019-03-15T18:59:42.504Z,3.40
2019-03-15T19:02:09.361Z,1.60
2019-03-15T19:04:36.204Z,2.17
2019-03-15T19:07:03.255Z,11.55
2019-03-15T19:09:30.017Z,1.40
2019-03-15T19:11:56.768Z,1.17
2019-03-15T19:14:23.896Z,1.12
2019-03-15T19:16:51.129Z,1.05
2019-03-15T19:19:19.210Z,0.88
2019-03-15T19:21:46.109Z,1.10
2019-03-15T19:24:12.985Z,1.87
2019-03-15T19:26:39.864Z,1.10
2019-03-15T19:29:06.924Z,0.80
2019-03-15T19:31:33.814Z,1.10
2019-03-15T19:34:00.545Z,1.10
2019-03-15T19:36:27.634Z,0.70
2019-03-15T19:38:54.380Z,0.90
2019-03-15T19:41:21.124Z,1.98
2019-03-15T19:43:48.030Z,0.80
2019-03-15T19:46:14.927Z,0.70
2019-03-15T19:48:42.304Z,1.65
2019-03-15T19:51:09.230Z,1.05
2019-03-15T19:53:36.505Z,0.68
2019-03-15T19:56:03.375Z,0.80
2019-03-15T19:58:30.542Z,0.80
2019-03-15T20:00:57.765Z,0.95
2019-03-15T20:03:24.582Z,0.70
2019-03-15T20:05:51.506Z,0.60
2019-03-15T20:08:18.401Z,2.08
2019-03-15T20:10:45.517Z,0.88
2019-03-15T20:13:12.412Z,0.60
2019-03-15T20:15:39.282Z,0.50
2019-03-15T20:18:06.296Z,0.60
2019-03-15T20:20:33.033Z,0.88
2019-03-15T20:22:59.919Z,0.98
2019-03-15T20:25:26.681Z,0.70
2019-03-15T20:27:53.555Z,0.53
2019-03-15T20:30:25.691Z,0.40
2019-03-15T20:32:49.523Z,0.50
2019-03-15T20:35:16.602Z,0.55
2019-03-15T20:37:43.386Z,0.98
2019-03-15T20:40:10.347Z,0.50
2019-03-15T20:42:37.225Z,0.45
2019-03-15T20:45:05.164Z,0.40
2019-03-15T20:47:36.237Z,1.07
2019-03-15T20:50:03.838Z,0.40
2019-03-15T20:52:30.678Z,0.40
2019-03-15T20:54:59.677Z,0.60
2019-03-15T20:57:26.553Z,0.50
2019-03-15T20:59:53.436Z,0.50
2019-03-15T21:02:20.581Z,0.60
2019-03-15T21:04:47.454Z,0.40
2019-03-15T21:07:14.355Z,0.50
2019-03-15T21:09:41.232Z,0.85
2019-03-15T21:12:08.168Z,1.10
2019-03-15T21:14:35.206Z,1.30
2019-03-15T21:17:02.178Z,0.60
2019-03-15T21:19:28.985Z,0.57
2019-03-15T21:21:56.468Z,0.45
2019-03-15T21:24:23.869Z,1.12
2019-03-15T21:26:51.317Z,0.50
2019-03-15T21:29:18.078Z,0.70
2019-03-15T21:31:44.821Z,0.70
2019-03-15T21:34:11.566Z,0.90
2019-03-15T21:36:41.324Z,0.60
2019-03-15T21:39:08.204Z,0.40
2019-03-15T21:41:35.337Z,0.75
2019-03-15T21:44:02.632Z,0.68
2019-03-15T21:46:29.610Z,0.70
2019-03-15T21:48:56.418Z,0.80
2019-03-15T21:51:23.153Z,1.50
2019-03-15T21:53:49.904Z,1.07
2019-03-15T21:56:16.941Z,0.70
2019-03-15T21:58:43.711Z,1.12
2019-03-15T22:01:10.825Z,1.10
2019-03-15T22:03:37.825Z,0.70
2019-03-15T22:06:05.023Z,0.82
2019-03-15T22:08:32.024Z,1.60
2019-03-15T22:10:58.897Z,0.68
2019-03-15T22:13:26.016Z,0.90
2019-03-15T22:15:52.923Z,1.07
2019-03-15T22:18:19.890Z,0.90
2019-03-15T22:20:46.896Z,0.90
2019-03-15T22:23:13.645Z,0.88
2019-03-15T22:25:40.522Z,0.88
2019-03-15T22:28:07.554Z,1.10
2019-03-15T22:30:34.425Z,1.00
2019-03-15T22:33:01.545Z,1.20
2019-03-15T22:35:28.421Z,0.90
2019-03-15T22:37:55.397Z,1.10
2019-03-15T22:40:22.559Z,1.00
2019-03-15T22:42:49.742Z,1.35
2019-03-15T22:45:16.872Z,1.17
2019-03-15T22:47:43.608Z,0.70
2019-03-15T22:50:10.902Z,0.80
2019-03-15T22:52:37.644Z,0.78
2019-03-15T22:55:04.921Z,0.80
2019-03-15T22:57:31.648Z,1.07
2019-03-15T22:59:58.492Z,0.73
2019-03-15T23:02:25.604Z,0.60
2019-03-15T23:04:52.498Z,0.78
2019-03-15T23:07:19.348Z,0.60
2019-03-15T23:09:46.356Z,0.90
2019-03-15T23:12:13.674Z,0.90
2019-03-15T23:14:40.565Z,0.75
2019-03-15T23:17:07.820Z,1.40
2019-03-15T23:19:34.658Z,1.00
2019-03-15T23:22:01.701Z,1.00
2019-03-15T23:24:28.592Z,0.75
2019-03-15T23:26:55.579Z,0.90
2019-03-15T23:29:22.573Z,0.80
2019-03-15T23:31:49.556Z,0.93
2019-03-15T23:34:16.438Z,0.90
2019-03-15T23:36:43.315Z,0.82
2019-03-15T23:39:10.381Z,1.00
2019-03-15T23:41:37.501Z,2.22
2019-03-15T23:44:04.384Z,1.10
2019-03-15T23:46:31.484Z,1.00
2019-03-15T23:48:58.324Z,1.00
2019-03-15T23:51:25.205Z,1.10
2019-03-15T23:53:52.587Z,1.10
2019-03-15T23:56:19.464Z,1.15
2019-03-15T23:58:46.609Z,1.10
